Aérodrome :
LOGIN :

S'inscrire | Disclaimer

   EN    FR    IT 

 










Légende :    VFR   VFR Marginal   IFR   IFR Intensif   IFR Très Intensif
Visi : 
Plafond : 
>= 8 km
>= 3000ft
5 à 8 km
1000 à 3000 ft
1500m à 5 km
500 à 1000 ft
800 à 1500m
200 à 500 ft
< 800m
< 200 ft
Symboles :   Orages  Brouillard  Fortes neiges  Fortes précipitations  Vent > 20 kt
SIGMETs :   Divers  Orages  Givrage  Turbulence  Onde Orograph.  Cendres Volcan.







- Altitude de l'aérodrome : 1345 ft
- Code IATA : FRZ


ETHF - Fritzlar

DERNIER METAR :
  • 222120Z 33004KT 9999 SCT080 BKN110 14/14 Q1016 BLU

METARs EXPIRÉS :
  • 222020Z 33002KT 9999 SCT080 BKN100 15/14 Q1015 BLU
  • 221920Z 24004KT 9999 FEW040 BKN060 BKN080 15/14 Q1015 BLU

TAF AMD TAF ETHF
Valide du 22 à 14h jusqu'au 22 à 23h UTC


221414Z 2214/2223 04006KT 9999 NSW SCT050 BKN270
TEMPO 2214/2218 06015G25KT 3000 TSRA SCT030 BKN040CB
TEMPO 2218/2220 05012KT 5000 SHRA FEW030 BKN050TCU CANCEL 1420
Pas de NOTAMs connus pour ce terrain.



MET'MAP, la Météo Aéronautique d'un coup d'oeil ! - Copyright ORBIFLY Décembre 2007 - Disclaimer

ORBIFLY MET'MAP TEAM :

Programmation & Développement : Alexandra Zaïnal
Conception & Développement : Baudouin d'Aumeries
Co-Programmation & Développement : Marc-Olivier Méhu
Soutien technique & logistique : Manuel Goepfert

Contact : metmap@orbifly.com




SOURCES & CREDITS :

   NOAA